Pagina principală
METAR-TAF:

METAR-TAF

Aeroporturi :

Liberal, Kansas, Statele Unite ale Americii

Latitudine: 37-03N, longitudine: 100-58W, elevație: 879 m

Observații meteo curente

Raportul a fost făcut în urmă cu 37 de minute, la 21:56 UTC
Vânt 14 kt de la Sud-est cu rafale de până la 23 kt
Temperatură 27°C
Umiditate 48%
Presiune 1018 hPa
Vizibilitate: 16.1 km
Nori puțini la o înălțime de 5000 picior

METAR: KLBL 282156Z AUTO 14014G23KT 10SM FEW050 27/15 A3006 RMK AO2 PK WND 12026/2121 SLP154 T02670150 PNO $

Ora: 17:33 (22:33 UTC)


TAF: lipsă

Observații și prognoze meteo pentru peste 4.000 de aeroporturi (rapoarte METAR și TAF).

Stațiile disponibile sunt reprezentate pe hartă prin puncte galbene și roșii.

Țineți indicatorul mouse-ului pe punctul dorit pentru a vedea denumirea stației.

Apoi, faceți clic pentru a vedea observațiile și prognozele meteorologice.

Pentru a schimba harta: Pentru mărire, faceți clic pe butoanele verzi cu cruce neagră; pentru micșorare, pe butonul verde cu o liniuță; pentru hărți învecinate, pe săgețile verzi.


METAR-TAF: